createdAt,value
2022-12-12T00:00:27.195Z,44.00
2022-12-12T00:02:53.656Z,42.85
2022-12-12T00:05:20.127Z,46.58
2022-12-12T00:07:46.500Z,46.00
2022-12-12T00:10:12.941Z,42.28
2022-12-12T00:12:39.312Z,44.58
2022-12-12T00:15:06.385Z,41.50
2022-12-12T00:17:32.772Z,42.47
2022-12-12T00:19:59.095Z,41.55
2022-12-12T00:22:25.556Z,47.20
2022-12-12T00:24:51.885Z,41.05
2022-12-12T00:27:18.282Z,46.33
2022-12-12T00:29:44.621Z,45.40
2022-12-12T00:32:10.965Z,44.88
2022-12-12T00:34:37.293Z,42.70
2022-12-12T00:37:03.598Z,39.97
2022-12-12T00:39:29.882Z,48.90
2022-12-12T00:41:56.307Z,45.83
2022-12-12T00:44:22.649Z,42.67
2022-12-12T00:46:49.040Z,39.97
2022-12-12T00:49:15.404Z,40.63
2022-12-12T00:51:43.244Z,47.40
2022-12-12T00:54:09.854Z,47.28
2022-12-12T00:56:36.276Z,38.38
2022-12-12T00:59:03.868Z,47.10
2022-12-12T01:01:32.415Z,44.50
2022-12-12T01:04:00.008Z,42.90
2022-12-12T01:06:27.691Z,47.13
2022-12-12T01:08:54.767Z,46.70
2022-12-12T01:11:21.686Z,48.15
2022-12-12T01:13:49.866Z,50.38
2022-12-12T01:16:16.939Z,50.65
2022-12-12T01:18:43.858Z,51.25
2022-12-12T01:21:12.752Z,47.83
2022-12-12T01:23:39.623Z,47.17
2022-12-12T01:26:09.989Z,47.33
2022-12-12T01:28:37.730Z,47.67
2022-12-12T01:31:05.240Z,45.97
2022-12-12T01:33:31.801Z,45.60
2022-12-12T01:35:58.910Z,48.97
2022-12-12T01:38:25.688Z,47.22
2022-12-12T01:40:53.243Z,48.42
2022-12-12T01:43:21.967Z,44.53
2022-12-12T01:45:57.789Z,45.75
2022-12-12T01:48:31.836Z,45.63
2022-12-12T01:51:02.152Z,45.83
2022-12-12T01:53:30.024Z,49.22
2022-12-12T01:55:58.680Z,45.05
2022-12-12T01:58:25.851Z,49.45
2022-12-12T02:00:52.477Z,47.80
2022-12-12T02:03:18.944Z,44.25
2022-12-12T02:05:56.441Z,48.40
2022-12-12T02:08:23.919Z,49.85
2022-12-12T02:10:51.178Z,46.05
2022-12-12T02:13:30.929Z,50.67
2022-12-12T02:16:15.740Z,46.30
2022-12-12T02:18:50.008Z,43.95
2022-12-12T02:21:34.528Z,46.75
2022-12-12T02:24:33.126Z,44.15
2022-12-12T02:27:35.525Z,49.70
2022-12-12T02:30:10.663Z,47.75
2022-12-12T02:32:58.770Z,43.72
2022-12-12T02:35:49.418Z,46.55
2022-12-12T02:38:37.246Z,48.60
2022-12-12T02:41:33.246Z,44.90
2022-12-12T02:44:14.624Z,43.45
2022-12-12T02:46:53.254Z,44.05
2022-12-12T02:49:29.643Z,45.08
2022-12-12T02:51:57.779Z,47.63
2022-12-12T02:54:24.298Z,44.15
2022-12-12T02:56:54.207Z,43.70
2022-12-12T02:59:31.419Z,45.92
2022-12-12T03:02:08.177Z,42.80
2022-12-12T03:05:15.735Z,43.28
2022-12-12T03:07:53.309Z,41.58
2022-12-12T03:10:29.800Z,45.03
2022-12-12T03:13:30.537Z,40.83
2022-12-12T03:16:24.274Z,42.67
2022-12-12T03:19:12.573Z,41.92
2022-12-12T03:21:57.717Z,42.72
2022-12-12T03:24:43.408Z,40.95
2022-12-12T03:27:16.800Z,42.10
2022-12-12T03:29:48.217Z,38.58
2022-12-12T03:32:19.488Z,42.00
2022-12-12T03:34:52.227Z,39.08
2022-12-12T03:37:21.232Z,38.75
2022-12-12T03:39:54.114Z,40.03
2022-12-12T03:44:52.654Z,36.00
2022-12-12T03:47:28.754Z,32.60
2022-12-12T03:50:08.140Z,37.50
2022-12-12T03:52:45.526Z,37.20
2022-12-12T03:55:26.423Z,39.25
2022-12-12T03:58:00.083Z,38.28
2022-12-12T04:00:30.125Z,37.80
2022-12-12T04:03:15.634Z,42.25
2022-12-12T04:06:04.399Z,38.45
2022-12-12T04:08:32.172Z,42.30
2022-12-12T04:11:32.441Z,40.08
2022-12-12T04:14:13.700Z,39.60
2022-12-12T04:16:44.617Z,43.17
2022-12-12T04:19:52.065Z,40.45
2022-12-12T04:22:42.141Z,36.83
2022-12-12T04:25:59.824Z,35.55
2022-12-12T04:28:28.921Z,34.17
2022-12-12T04:31:00.392Z,36.00
2022-12-12T04:33:33.983Z,38.67
2022-12-12T04:36:01.987Z,36.97
2022-12-12T04:38:29.281Z,38.30
2022-12-12T04:40:59.298Z,34.35
2022-12-12T04:43:31.529Z,35.97
2022-12-12T04:46:04.702Z,41.20
2022-12-12T04:48:38.621Z,39.58
2022-12-12T04:51:09.226Z,35.88
2022-12-12T04:53:40.340Z,36.50
2022-12-12T04:56:11.464Z,38.00
2022-12-12T04:58:39.564Z,38.45
2022-12-12T05:01:22.593Z,37.33
2022-12-12T05:03:57.356Z,38.72
2022-12-12T05:06:33.533Z,35.03
2022-12-12T05:09:01.986Z,37.72
2022-12-12T05:11:28.782Z,42.40
2022-12-12T05:13:55.270Z,40.60
2022-12-12T05:16:27.569Z,39.42
2022-12-12T05:18:54.253Z,36.33
2022-12-12T05:21:20.866Z,36.08
2022-12-12T05:23:47.370Z,38.03
2022-12-12T05:26:31.462Z,40.80
2022-12-12T05:29:02.360Z,40.42
2022-12-12T05:31:33.297Z,40.08
2022-12-12T05:33:59.766Z,37.80
2022-12-12T05:36:26.376Z,40.22
2022-12-12T05:38:52.927Z,43.20
2022-12-12T05:41:19.445Z,41.28
2022-12-12T05:43:45.976Z,36.38
2022-12-12T05:46:12.863Z,38.30
2022-12-12T05:48:39.370Z,42.65
2022-12-12T05:51:06.257Z,38.22
2022-12-12T05:53:36.414Z,37.67
2022-12-12T05:56:11.267Z,35.05
2022-12-12T05:58:37.893Z,39.67
2022-12-12T06:01:05.690Z,37.95
2022-12-12T06:03:32.622Z,38.63
2022-12-12T06:05:59.731Z,38.70
2022-12-12T06:08:26.280Z,36.55
2022-12-12T06:10:52.870Z,40.78
2022-12-12T06:13:19.486Z,42.80
2022-12-12T06:15:46.120Z,38.60
2022-12-12T06:18:12.643Z,38.42
2022-12-12T06:20:39.141Z,40.88
2022-12-12T06:23:05.811Z,35.67
2022-12-12T06:25:32.399Z,44.53
2022-12-12T06:27:59.324Z,45.05
2022-12-12T06:30:26.057Z,43.83
2022-12-12T06:32:52.472Z,40.17
2022-12-12T06:35:19.060Z,42.33
2022-12-12T06:37:45.645Z,41.38
2022-12-12T06:40:12.712Z,41.72
2022-12-12T06:42:43.309Z,47.17
2022-12-12T06:45:14.854Z,40.85
2022-12-12T06:47:41.719Z,39.75
2022-12-12T06:50:08.768Z,38.30
2022-12-12T06:52:35.291Z,40.78
2022-12-12T06:55:01.865Z,42.40
2022-12-12T06:57:28.416Z,40.95
2022-12-12T07:02:29.657Z,39.10
2022-12-12T07:04:57.501Z,34.63
2022-12-12T07:07:23.861Z,36.60
2022-12-12T07:09:50.189Z,40.10
2022-12-12T07:12:16.502Z,40.10
2022-12-12T07:14:42.885Z,42.13
2022-12-12T07:17:09.190Z,39.95
2022-12-12T07:19:35.718Z,37.28
2022-12-12T07:22:09.107Z,39.67
2022-12-12T07:24:36.422Z,43.05
2022-12-12T07:27:03.187Z,42.10
2022-12-12T07:29:29.510Z,33.58
2022-12-12T07:31:55.831Z,38.30
2022-12-12T07:34:22.158Z,41.55
2022-12-12T07:36:49.127Z,42.80
2022-12-12T07:39:20.631Z,40.50
2022-12-12T07:41:47.192Z,40.83
2022-12-12T07:44:13.528Z,45.25
2022-12-12T07:46:39.962Z,38.45
2022-12-12T07:49:06.388Z,40.28
2022-12-12T07:51:32.771Z,44.15
2022-12-12T07:53:59.149Z,40.47
2022-12-12T07:56:25.500Z,44.80
2022-12-12T07:58:53.264Z,36.97
2022-12-12T08:01:23.510Z,40.25
2022-12-12T08:03:50.680Z,41.17
2022-12-12T08:06:17.945Z,40.13
2022-12-12T08:08:45.944Z,41.42
2022-12-12T08:11:15.862Z,39.97
2022-12-12T08:13:42.301Z,44.13
2022-12-12T08:16:20.107Z,44.35
2022-12-12T08:18:47.737Z,39.95
2022-12-12T08:21:22.988Z,43.83
2022-12-12T08:23:51.400Z,43.90
2022-12-12T08:26:18.398Z,43.88
2022-12-12T08:28:45.686Z,42.83
2022-12-12T08:31:16.778Z,43.03
2022-12-12T08:33:43.331Z,37.42
2022-12-12T08:36:20.991Z,40.10
2022-12-12T08:38:47.457Z,44.72
2022-12-12T08:41:14.593Z,47.80
2022-12-12T08:43:42.486Z,42.70
2022-12-12T08:46:16.772Z,46.45
2022-12-12T08:48:44.134Z,43.83
2022-12-12T08:51:10.490Z,48.03
2022-12-12T08:53:36.869Z,46.20
2022-12-12T08:56:03.208Z,46.78
2022-12-12T08:58:29.584Z,46.70
2022-12-12T09:00:56.556Z,55.08
2022-12-12T09:03:29.003Z,51.65
2022-12-12T09:05:55.961Z,43.42
2022-12-12T09:08:22.339Z,52.00
2022-12-12T09:10:50.207Z,45.22
2022-12-12T09:13:16.775Z,52.58
2022-12-12T09:15:43.141Z,47.25
2022-12-12T09:18:09.503Z,44.25
2022-12-12T09:20:35.852Z,44.15
2022-12-12T09:23:02.205Z,46.53
2022-12-12T09:25:28.632Z,50.10
2022-12-12T09:27:54.964Z,43.67
2022-12-12T09:30:21.916Z,47.78
2022-12-12T09:32:48.215Z,48.47
2022-12-12T09:35:15.171Z,51.55
2022-12-12T09:37:41.668Z,47.53
2022-12-12T09:40:10.939Z,45.42
2022-12-12T09:42:46.522Z,47.15
2022-12-12T09:45:13.547Z,47.03
2022-12-12T09:47:46.131Z,45.67
2022-12-12T09:50:27.213Z,33.90
2022-12-12T09:52:56.377Z,44.22
2022-12-12T09:55:32.810Z,43.33
2022-12-12T09:58:05.182Z,45.25
2022-12-12T10:00:36.365Z,41.17
2022-12-12T10:03:22.076Z,48.85
2022-12-12T10:06:35.839Z,47.78
2022-12-12T10:09:24.137Z,41.28
2022-12-12T10:11:54.371Z,46.22
2022-12-12T10:14:36.755Z,45.28
2022-12-12T10:17:29.387Z,45.03
2022-12-12T10:20:00.344Z,43.47
2022-12-12T10:22:40.175Z,42.25
2022-12-12T10:25:18.924Z,46.83
2022-12-12T10:27:45.260Z,45.25
2022-12-12T10:30:18.008Z,45.78
2022-12-12T10:33:05.999Z,44.22
2022-12-12T10:35:58.436Z,42.88
2022-12-12T10:38:42.793Z,47.92
2022-12-12T10:41:19.874Z,44.72
2022-12-12T10:43:58.081Z,43.10
2022-12-12T10:46:49.695Z,45.03
2022-12-12T10:49:19.158Z,44.72
2022-12-12T10:51:47.341Z,45.20
2022-12-12T10:54:20.505Z,49.92
2022-12-12T10:57:19.861Z,48.83
2022-12-12T10:59:51.533Z,44.83
2022-12-12T11:02:40.806Z,45.75
2022-12-12T11:05:17.246Z,44.70
2022-12-12T11:07:50.224Z,44.65
2022-12-12T11:10:27.995Z,44.42
2022-12-12T11:13:03.122Z,41.55
2022-12-12T11:15:43.775Z,44.80
2022-12-12T11:18:18.482Z,41.78
2022-12-12T11:20:48.351Z,39.33
2022-12-12T11:23:24.752Z,44.50
2022-12-12T11:26:02.459Z,42.83
2022-12-12T11:28:34.016Z,42.67
2022-12-12T11:31:06.732Z,44.75
2022-12-12T11:33:46.137Z,42.63
2022-12-12T11:36:23.075Z,39.90
2022-12-12T11:38:55.802Z,44.13
2022-12-12T11:41:22.947Z,41.97
2022-12-12T11:43:49.205Z,47.55
2022-12-12T11:46:17.093Z,43.55
2022-12-12T11:48:46.500Z,42.58
2022-12-12T11:51:29.373Z,50.53
2022-12-12T11:53:55.920Z,45.67
2022-12-12T11:56:32.722Z,47.28
2022-12-12T11:59:11.166Z,39.65
2022-12-12T12:02:08.146Z,39.92
2022-12-12T12:05:02.453Z,38.70
2022-12-12T12:07:56.788Z,39.90
2022-12-12T12:10:56.877Z,40.03
2022-12-12T12:14:14.953Z,39.95
2022-12-12T12:17:02.251Z,41.17
2022-12-12T12:20:02.670Z,38.50
2022-12-12T12:22:55.014Z,42.35
2022-12-12T12:25:30.491Z,45.80
2022-12-12T12:27:59.964Z,39.90
2022-12-12T12:30:44.329Z,40.80
2022-12-12T12:33:32.430Z,40.38
2022-12-12T12:36:21.485Z,41.35
2022-12-12T12:39:10.353Z,37.17
2022-12-12T12:41:49.719Z,37.72
2022-12-12T12:44:35.626Z,37.20
2022-12-12T12:47:10.938Z,43.42
2022-12-12T12:49:54.043Z,40.25
2022-12-12T12:54:56.599Z,33.15
2022-12-12T12:57:32.531Z,35.35
2022-12-12T13:00:04.503Z,37.67
2022-12-12T13:02:47.765Z,40.93
2022-12-12T13:07:56.563Z,32.87
2022-12-12T13:10:27.114Z,38.60
2022-12-12T13:13:04.539Z,33.65
2022-12-12T13:15:43.788Z,38.95
2022-12-12T13:18:15.800Z,36.53
2022-12-12T13:20:47.926Z,39.10
2022-12-12T13:23:32.945Z,43.47
2022-12-12T13:26:33.932Z,36.42
2022-12-12T13:29:14.414Z,40.55
2022-12-12T13:32:01.741Z,37.92
2022-12-12T13:34:31.066Z,35.67
2022-12-12T13:36:58.643Z,39.28
2022-12-12T13:39:30.090Z,37.13
2022-12-12T13:42:02.785Z,40.58
2022-12-12T13:44:44.409Z,35.60
2022-12-12T13:47:12.960Z,36.17
2022-12-12T13:49:45.307Z,36.03
2022-12-12T13:52:40.982Z,37.35
2022-12-12T13:55:13.352Z,38.92
2022-12-12T13:58:05.797Z,39.92
2022-12-12T14:00:39.885Z,41.72
2022-12-12T14:03:34.163Z,43.17
2022-12-12T14:06:10.181Z,39.78
2022-12-12T14:08:38.922Z,36.85
2022-12-12T14:11:11.922Z,37.15
2022-12-12T14:13:45.349Z,36.95
2022-12-12T14:16:15.774Z,39.75
2022-12-12T14:18:51.279Z,35.08
2022-12-12T14:21:20.087Z,39.60
2022-12-12T14:23:53.600Z,38.10
2022-12-12T14:26:28.966Z,42.60
2022-12-12T14:29:17.155Z,41.80
2022-12-12T14:31:55.953Z,39.65
2022-12-12T14:34:56.510Z,38.92
2022-12-12T14:37:53.792Z,44.35
2022-12-12T14:40:28.084Z,39.97
2022-12-12T14:43:20.521Z,38.22
2022-12-12T14:45:58.894Z,37.35
2022-12-12T14:48:27.530Z,41.92
2022-12-12T14:51:00.054Z,40.67
2022-12-12T14:53:37.210Z,36.58
2022-12-12T14:56:11.551Z,42.03
2022-12-12T14:58:50.551Z,42.30
2022-12-12T15:01:28.675Z,41.33
2022-12-12T15:03:55.447Z,38.80
2022-12-12T15:06:37.765Z,39.33
2022-12-12T15:09:15.277Z,41.20
2022-12-12T15:11:41.847Z,37.58
2022-12-12T15:14:18.913Z,42.97
2022-12-12T15:17:07.896Z,37.92
2022-12-12T15:19:43.737Z,37.20
2022-12-12T15:22:29.600Z,40.10
2022-12-12T15:24:59.694Z,34.70
2022-12-12T15:27:41.585Z,41.63
2022-12-12T15:30:29.293Z,41.92
2022-12-12T15:32:57.639Z,39.17
2022-12-12T15:35:24.352Z,43.35
2022-12-12T15:38:10.364Z,45.92
2022-12-12T15:40:38.186Z,42.17
2022-12-12T15:43:07.664Z,41.20
2022-12-12T15:45:37.664Z,41.33
2022-12-12T15:48:05.903Z,40.42
2022-12-12T15:50:44.494Z,35.85
2022-12-12T15:53:19.035Z,41.30
2022-12-12T15:56:07.170Z,40.95
2022-12-12T15:58:38.443Z,39.65
2022-12-12T16:01:20.954Z,43.42
2022-12-12T16:04:21.663Z,42.85
2022-12-12T16:06:49.145Z,41.15
2022-12-12T16:09:26.815Z,38.95
2022-12-12T16:11:59.610Z,43.35
2022-12-12T16:14:42.680Z,45.45
2022-12-12T16:17:20.622Z,38.58
2022-12-12T16:20:30.450Z,41.33
2022-12-12T16:23:09.272Z,45.08
2022-12-12T16:25:36.786Z,41.13
2022-12-12T16:28:09.739Z,44.55
2022-12-12T16:33:20.456Z,38.33
2022-12-12T16:35:46.893Z,45.78
2022-12-12T16:38:15.270Z,44.95
2022-12-12T16:40:43.094Z,46.00
2022-12-12T16:43:12.567Z,46.50
2022-12-12T16:45:40.274Z,47.15
2022-12-12T16:48:26.433Z,45.22
2022-12-12T16:50:57.748Z,40.70
2022-12-12T16:53:24.220Z,42.75
2022-12-12T16:55:51.968Z,50.58
2022-12-12T16:58:18.649Z,45.90
2022-12-12T17:00:45.477Z,45.83
2022-12-12T17:03:16.296Z,46.97
2022-12-12T17:05:44.733Z,50.60
2022-12-12T17:08:11.503Z,51.13
2022-12-12T17:10:38.372Z,47.28
2022-12-12T17:13:07.252Z,46.53
2022-12-12T17:15:34.257Z,51.65
2022-12-12T17:18:00.966Z,45.60
2022-12-12T17:20:28.712Z,55.33
2022-12-12T17:23:29.613Z,45.78
2022-12-12T17:26:02.906Z,47.95
2022-12-12T17:28:31.948Z,52.22
2022-12-12T17:30:58.788Z,51.15
2022-12-12T17:33:25.673Z,47.40
2022-12-12T17:36:06.907Z,49.72
2022-12-12T17:38:33.805Z,50.40
2022-12-12T17:41:04.964Z,47.22
2022-12-12T17:43:31.552Z,50.42
2022-12-12T17:46:03.916Z,49.78
2022-12-12T17:48:32.942Z,50.20
2022-12-12T17:51:01.670Z,48.42
2022-12-12T17:53:36.580Z,45.67
2022-12-12T17:56:07.847Z,47.20
2022-12-12T17:58:37.988Z,55.30
2022-12-12T18:01:14.052Z,48.10
2022-12-12T18:03:41.866Z,49.85
2022-12-12T18:06:09.787Z,48.05
2022-12-12T18:08:37.412Z,51.05
2022-12-12T18:11:14.424Z,44.05
2022-12-12T18:13:42.194Z,49.10
2022-12-12T18:16:11.477Z,49.88
2022-12-12T18:18:38.761Z,45.78
2022-12-12T18:21:35.961Z,50.28
2022-12-12T18:24:02.128Z,45.90
2022-12-12T18:26:28.836Z,48.88
2022-12-12T18:28:57.789Z,50.85
2022-12-12T18:31:24.829Z,53.83
2022-12-12T18:33:51.690Z,50.22
2022-12-12T18:36:20.806Z,52.20
2022-12-12T18:38:48.224Z,49.22
2022-12-12T18:41:16.586Z,54.97
2022-12-12T18:43:43.145Z,52.38
2022-12-12T18:46:14.933Z,56.92
2022-12-12T18:48:43.813Z,55.85
2022-12-12T18:51:16.700Z,59.03
2022-12-12T18:56:16.755Z,51.53
2022-12-12T18:58:44.155Z,53.97
2022-12-12T19:03:56.899Z,58.72
2022-12-12T19:06:26.998Z,55.50
2022-12-12T19:08:54.200Z,58.00
2022-12-12T19:11:20.638Z,58.80
2022-12-12T19:13:47.158Z,60.05
2022-12-12T19:16:16.224Z,53.70
2022-12-12T19:18:43.768Z,53.55
2022-12-12T19:21:14.469Z,54.63
2022-12-12T19:23:41.415Z,52.53
2022-12-12T19:26:16.901Z,51.40
2022-12-12T19:28:44.052Z,51.00
2022-12-12T19:31:14.676Z,51.45
2022-12-12T19:33:44.644Z,53.22
2022-12-12T19:36:22.320Z,56.88
2022-12-12T19:38:49.085Z,48.55
2022-12-12T19:41:18.223Z,54.10
2022-12-12T19:43:45.829Z,51.75
2022-12-12T19:46:19.178Z,53.83
2022-12-12T19:48:45.906Z,47.63
2022-12-12T19:51:17.766Z,49.42
2022-12-12T19:53:49.445Z,48.72
2022-12-12T19:56:20.317Z,48.05
2022-12-12T19:58:46.655Z,46.55
2022-12-12T20:01:16.475Z,45.90
2022-12-12T20:03:42.783Z,49.13
2022-12-12T20:06:11.378Z,50.53
2022-12-12T20:08:38.269Z,51.13
2022-12-12T20:11:06.578Z,50.47
2022-12-12T20:13:33.431Z,46.15
2022-12-12T20:16:04.815Z,47.50
2022-12-12T20:18:31.379Z,44.15
2022-12-12T20:20:58.448Z,46.75
2022-12-12T20:23:24.732Z,48.17
2022-12-12T20:25:51.064Z,52.55
2022-12-12T20:28:17.496Z,53.03
2022-12-12T20:30:43.863Z,46.35
2022-12-12T20:33:10.273Z,49.20
2022-12-12T20:35:36.629Z,49.45
2022-12-12T20:38:02.940Z,48.22
2022-12-12T20:40:29.416Z,47.00
2022-12-12T20:43:03.011Z,46.15
2022-12-12T20:45:29.783Z,46.35
2022-12-12T20:47:56.076Z,44.65
2022-12-12T20:50:22.391Z,47.25
2022-12-12T20:52:48.746Z,45.08
2022-12-12T20:55:15.448Z,45.83
2022-12-12T20:57:42.072Z,46.65
2022-12-12T21:00:09.038Z,49.85
2022-12-12T21:02:35.440Z,46.22
2022-12-12T21:05:01.754Z,49.22
2022-12-12T21:07:28.029Z,50.13
2022-12-12T21:09:54.318Z,46.15
2022-12-12T21:12:20.783Z,41.92
2022-12-12T21:14:47.112Z,41.25
2022-12-12T21:17:13.494Z,47.38
2022-12-12T21:19:39.899Z,54.25
2022-12-12T21:22:08.209Z,50.05
2022-12-12T21:24:34.576Z,49.83
2022-12-12T21:27:00.933Z,46.97
2022-12-12T21:29:27.237Z,50.90
2022-12-12T21:31:53.614Z,45.30
2022-12-12T21:34:21.927Z,44.20
2022-12-12T21:36:53.793Z,45.58
2022-12-12T21:39:26.554Z,48.50
2022-12-12T21:41:53.037Z,48.08
2022-12-12T21:44:20.653Z,49.47
2022-12-12T21:46:47.463Z,47.83
2022-12-12T21:49:19.657Z,47.05
2022-12-12T21:51:46.239Z,45.15
2022-12-12T21:54:15.297Z,46.78
2022-12-12T21:56:42.444Z,44.13
2022-12-12T21:59:10.917Z,48.10
2022-12-12T22:01:37.515Z,49.50
2022-12-12T22:04:04.052Z,47.15
2022-12-12T22:06:32.927Z,48.78
2022-12-12T22:09:00.560Z,53.70
2022-12-12T22:11:48.233Z,47.88
2022-12-12T22:14:18.568Z,55.38
2022-12-12T22:16:45.175Z,49.67
2022-12-12T22:19:13.723Z,56.35
2022-12-12T22:21:40.108Z,49.95
2022-12-12T22:24:06.994Z,49.92
2022-12-12T22:26:39.005Z,50.10
2022-12-12T22:29:08.526Z,54.45
2022-12-12T22:31:37.488Z,51.90
2022-12-12T22:34:06.802Z,52.38
2022-12-12T22:36:37.739Z,53.83
2022-12-12T22:39:06.865Z,54.60
2022-12-12T22:41:33.618Z,47.80
2022-12-12T22:44:02.367Z,58.60
2022-12-12T22:46:29.186Z,48.90
2022-12-12T22:48:58.994Z,49.80
2022-12-12T22:51:29.323Z,46.80
2022-12-12T22:53:57.264Z,49.78
2022-12-12T22:56:23.721Z,54.05
2022-12-12T22:58:50.162Z,52.85
2022-12-12T23:01:20.991Z,53.67
2022-12-12T23:03:47.737Z,53.85
2022-12-12T23:06:20.080Z,53.58
2022-12-12T23:08:51.819Z,55.70
2022-12-12T23:11:19.789Z,56.85
2022-12-12T23:13:46.452Z,50.10
2022-12-12T23:16:18.784Z,53.70
2022-12-12T23:18:46.741Z,55.08
2022-12-12T23:21:17.188Z,50.70
2022-12-12T23:23:44.923Z,58.60
2022-12-12T23:26:18.126Z,50.50
2022-12-12T23:28:45.797Z,53.30
2022-12-12T23:31:18.782Z,51.75
2022-12-12T23:33:46.417Z,57.30
2022-12-12T23:36:14.422Z,55.33
2022-12-12T23:38:41.386Z,56.65
2022-12-12T23:41:10.447Z,50.67
2022-12-12T23:43:37.512Z,51.95
2022-12-12T23:46:06.360Z,51.08
2022-12-12T23:48:33.922Z,48.20
2022-12-12T23:51:01.055Z,54.17
2022-12-12T23:53:30.826Z,51.13
2022-12-12T23:56:02.308Z,52.05
2022-12-12T23:58:28.607Z,49.97
